カシュガル の空港の天気 - METARとTAF

カシュガル空港 ( ZWSH / KHG ) - 中国 新疆ウイグル自治区カシュガル市
飛行場実況気象(Metar)
観測時間05/28 19:00 CST (05/28 11:00 UTC)
風向・風速北西 6m/s
視程10km以上
天気現象
少しの雲 雲底高度 1010m
全天の8割程度の雲 雲底高度 1010m
気温29℃
湿度16%
気圧1007hPa
METARZWSH 281100Z 31006MPS 280V350 9999 FEW033CB BKN033 29/01 Q1007 NOSIG
過去の天気等 Google飛行場航空写真 Wunderground天気予報

過去48時間のMETAR

飛行場予報(TAF)
発表時間: 5/28 17:04 CST (5/28 09:04 UTC)
予報対象時間: 28日20時 CST ~ 29日20時 CST
風向・風速北西 7m/s
視程6000m
少しの積乱雲 雲底高度 1010m
全天の8割程度の雲 雲底高度 1220m
29日10時 CST ~ 29日11時 CST に徐々に
風向・風速東北東 5m/s
TAF ZWSH 280904Z 2812/2912 32007MPS 6000 FEW033CB BKN040 TX28/2909Z TN20/2900Z
BECMG 2902/2903 06005MPS